Time;durP1;ratioP1;P1;durP2;ratioP2;P2;SDS_P1;SDS_P2;PMS_P1;PMS_P2;Temp;Humidity;BMP_temperature;BMP_pressure;BME280_temperature;BME280_humidity;BME280_pressure;Samples;Min_cycle;Max_cycle;Signal;HPM_P1;HPM_P2
2022/12/23 00:00:05;;;;;;;33.80;20.80;;;;;;;8.87;100.00;100202.97;5022685;28;20366;-58
2022/12/23 00:02:30;;;;;;;34.58;20.83;;;;;;;8.90;100.00;100202.66;5022626;28;20056;-59
2022/12/23 00:04:56;;;;;;;34.40;20.92;;;;;;;8.92;100.00;100205.97;5027096;28;20029;-57
2022/12/23 00:07:21;;;;;;;35.70;20.73;;;;;;;8.91;100.00;100206.97;5028695;28;20116;-58
2022/12/23 00:09:46;;;;;;;37.28;22.40;;;;;;;8.91;100.00;100214.06;5021706;28;20038;-59
2022/12/23 00:15:05;;;;;;;38.45;22.50;;;;;;;8.90;100.00;100218.53;5026333;28;20052;-58
2022/12/23 00:17:35;;;;;;;39.45;23.67;;;;;;;8.91;100.00;100220.19;5024874;28;20116;-58
2022/12/23 00:20:01;;;;;;;38.28;23.10;;;;;;;8.97;100.00;100219.50;5022097;28;20057;-59
2022/12/23 00:25:12;;;;;;;39.92;24.55;;;;;;;8.94;100.00;100230.41;5022029;28;20087;-58
2022/12/23 00:27:38;;;;;;;37.00;24.23;;;;;;;9.01;100.00;100230.59;5027234;28;20065;-59
2022/12/23 00:30:05;;;;;;;41.60;24.50;;;;;;;8.97;100.00;100230.09;5028926;28;20061;-57
2022/12/23 00:32:30;;;;;;;39.25;25.35;;;;;;;8.93;100.00;100228.75;5028547;28;20429;-58
2022/12/23 00:34:55;;;;;;;42.88;25.48;;;;;;;8.94;100.00;100226.97;5026531;28;20091;-57
2022/12/23 00:37:21;;;;;;;43.25;23.83;;;;;;;9.05;100.00;100236.38;5026345;28;20493;-57
2022/12/23 00:45:14;;;;;;;43.63;23.92;;;;;;;8.97;100.00;100248.59;5027498;28;20043;-58
2022/12/23 00:50:23;;;;;;;42.75;23.73;;;;;;;8.95;100.00;100253.25;5025792;28;20067;-59
2022/12/23 00:52:49;;;;;;;39.80;22.52;;;;;;;8.98;100.00;100262.66;5018534;28;20057;-58
2022/12/23 00:55:14;;;;;;;42.53;24.08;;;;;;;8.96;100.00;100265.47;5021241;28;20454;-59
2022/12/23 00:57:39;;;;;;;39.78;21.40;;;;;;;9.08;100.00;100268.59;5021594;28;20018;-58
2022/12/23 01:00:05;;;;;;;43.28;22.25;;;;;;;9.10;100.00;100265.78;5019912;28;20018;-59
2022/12/23 01:05:47;;;;;;;41.10;22.15;;;;;;;9.01;100.00;100278.19;5022505;28;20107;-58
2022/12/23 01:08:08;;;;;;;39.33;23.08;;;;;;;9.00;100.00;100276.53;5017479;28;20048;-57
2022/12/23 01:10:35;;;;;;;37.90;22.48;;;;;;;9.04;100.00;100279.69;5027394;28;20405;-58
2022/12/23 01:13:00;;;;;;;36.63;21.92;;;;;;;9.01;100.00;100276.38;5021916;28;20022;-58
2022/12/23 01:15:26;;;;;;;43.00;22.35;;;;;;;8.99;100.00;100281.00;5023393;28;20033;-58
2022/12/23 01:17:51;;;;;;;37.75;21.10;;;;;;;9.01;100.00;100273.75;5029432;28;20068;-57
2022/12/23 01:20:17;;;;;;;40.10;22.98;;;;;;;9.02;100.00;100277.19;5025988;28;20037;-58
2022/12/23 01:22:42;;;;;;;39.08;23.27;;;;;;;8.98;100.00;100279.34;5020966;28;20096;-58
2022/12/23 01:25:08;;;;;;;37.85;22.90;;;;;;;8.98;100.00;100275.88;5023965;28;20065;-57
2022/12/23 01:27:33;;;;;;;42.50;24.40;;;;;;;8.99;100.00;100278.34;5020452;28;20037;-59
2022/12/23 01:29:58;;;;;;;38.53;23.58;;;;;;;9.05;100.00;100278.69;5022871;28;20088;-58
2022/12/23 01:32:24;;;;;;;40.42;23.95;;;;;;;8.95;100.00;100279.69;5024284;28;20053;-58
2022/12/23 01:34:49;;;;;;;39.20;24.50;;;;;;;8.94;100.00;100285.13;5022056;28;20045;-58
2022/12/23 01:37:14;;;;;;;45.38;25.67;;;;;;;8.94;100.00;100283.31;5021776;28;20034;-58
2022/12/23 01:39:39;;;;;;;45.00;25.30;;;;;;;8.93;100.00;100284.28;5024499;28;20025;-57
2022/12/23 01:44:59;;;;;;;47.78;26.52;;;;;;;8.89;100.00;100280.34;5020801;28;20052;-58
2022/12/23 01:48:03;;;;;;;43.67;25.38;;;;;;;8.91;100.00;100294.22;5020737;28;20041;-58
2022/12/23 01:50:36;;;;;;;40.60;25.27;;;;;;;8.87;100.00;100293.72;5014224;28;20054;-57
2022/12/23 01:53:28;;;;;;;47.42;26.05;;;;;;;8.93;100.00;100286.94;5017493;28;20033;-58
2022/12/23 01:55:59;;;;;;;44.58;25.30;;;;;;;8.90;100.00;100300.50;5017408;28;20053;-58
2022/12/23 01:58:40;;;;;;;42.35;25.33;;;;;;;8.92;100.00;100301.16;5017373;28;20036;-58
2022/12/23 02:03:54;;;;;;;44.38;26.70;;;;;;;8.87;100.00;100314.03;5022715;28;20032;-58
2022/12/23 02:09:16;;;;;;;43.22;27.30;;;;;;;8.84;100.00;100320.47;5018549;28;20501;-58
2022/12/23 02:12:03;;;;;;;42.45;25.88;;;;;;;8.97;100.00;100327.94;5020561;28;20065;-59
2022/12/23 02:17:24;;;;;;;46.10;27.00;;;;;;;8.90;100.00;100324.31;5024618;28;20072;-58
2022/12/23 02:20:02;;;;;;;41.22;25.90;;;;;;;8.94;100.00;100320.31;5023824;28;20029;-58
2022/12/23 02:22:37;;;;;;;40.58;26.02;;;;;;;8.90;100.00;100323.47;5024704;28;20042;-59
2022/12/23 02:25:14;;;;;;;40.65;24.80;;;;;;;8.96;100.00;100322.81;5026500;28;20052;-58
2022/12/23 02:27:52;;;;;;;39.25;24.70;;;;;;;8.93;100.00;100329.25;5016764;28;20044;-58
2022/12/23 02:30:28;;;;;;;39.28;24.98;;;;;;;8.88;100.00;100326.25;5026342;28;20049;-60
2022/12/23 02:33:02;;;;;;;37.20;24.45;;;;;;;8.93;100.00;100334.53;5021641;28;20037;-58
2022/12/23 02:35:45;;;;;;;36.67;22.98;;;;;;;8.90;100.00;100331.41;5021838;28;20044;-58
2022/12/23 02:38:28;;;;;;;35.77;23.23;;;;;;;8.96;100.00;100350.09;5021703;28;20470;-57
2022/12/23 02:41:17;;;;;;;36.60;23.02;;;;;;;8.99;100.00;100364.81;5022534;28;20797;-58
2022/12/23 02:43:46;;;;;;;34.30;22.25;;;;;;;8.89;100.00;100359.69;5030793;28;20531;-58
2022/12/23 02:46:16;;;;;;;34.72;22.38;;;;;;;8.90;100.00;100379.84;5030245;28;20033;-58
2022/12/23 02:48:51;;;;;;;31.92;21.67;;;;;;;8.94;100.00;100373.22;5024881;28;20087;-58
2022/12/23 02:51:21;;;;;;;37.22;22.63;;;;;;;8.89;100.00;100380.81;5025678;28;20056;-58
2022/12/23 02:53:51;;;;;;;34.67;21.67;;;;;;;8.92;100.00;100377.03;5023086;28;20690;-60
2022/12/23 02:56:19;;;;;;;31.77;20.77;;;;;;;8.96;100.00;100381.81;5024389;28;20129;-58
2022/12/23 02:58:49;;;;;;;37.60;21.42;;;;;;;8.90;100.00;100393.06;5028912;28;20092;-58
2022/12/23 03:01:17;;;;;;;36.38;22.08;;;;;;;8.88;100.00;100379.16;5021877;28;20095;-58
2022/12/23 03:03:44;;;;;;;35.60;21.33;;;;;;;8.86;100.00;100381.13;5019708;28;20089;-59
2022/12/23 03:06:19;;;;;;;31.50;20.30;;;;;;;8.91;100.00;100383.28;5026327;28;20030;-58
2022/12/23 03:08:45;;;;;;;32.92;20.30;;;;;;;8.91;100.00;100384.13;5021577;28;20033;-57
2022/12/23 03:11:13;;;;;;;34.13;20.95;;;;;;;8.88;100.00;100384.44;5023436;28;20111;-58
2022/12/23 03:14:08;;;;;;;30.83;20.48;;;;;;;8.99;100.00;100389.41;5026404;28;20030;-59
2022/12/23 03:17:14;;;;;;;30.17;19.67;;;;;;;9.11;100.00;100391.75;5028922;28;20046;-57
2022/12/23 03:20:06;;;;;;;34.78;19.55;;;;;;;8.92;100.00;100385.78;5027808;28;20120;-57
2022/12/23 03:22:48;;;;;;;35.60;20.73;;;;;;;8.87;100.00;100377.50;5026427;28;20037;-58
2022/12/23 03:25:24;;;;;;;34.50;19.88;;;;;;;8.95;100.00;100385.47;5025001;28;20041;-57
2022/12/23 03:28:12;;;;;;;34.88;20.50;;;;;;;9.03;100.00;100379.34;5027190;28;20030;-57
2022/12/23 03:30:44;;;;;;;33.83;20.48;;;;;;;8.90;100.00;100382.47;5024098;28;20061;-57
2022/12/23 03:33:15;;;;;;;36.03;20.85;;;;;;;8.86;100.00;100370.56;5029069;28;20477;-58
2022/12/23 03:36:10;;;;;;;35.00;21.13;;;;;;;8.84;100.00;100372.53;5021845;28;20037;-58
2022/12/23 03:38:38;;;;;;;35.88;20.70;;;;;;;8.80;100.00;100371.19;5021593;28;20607;-58
2022/12/23 03:41:29;;;;;;;35.83;21.20;;;;;;;8.91;100.00;100378.00;5018078;28;20643;-59
2022/12/23 03:44:01;;;;;;;33.88;20.85;;;;;;;8.86;100.00;100383.78;5024401;28;20520;-57
2022/12/23 03:46:33;;;;;;;33.67;21.33;;;;;;;8.87;100.00;100377.50;5023974;28;20119;-59
2022/12/23 03:49:06;;;;;;;34.67;20.88;;;;;;;8.79;100.00;100369.56;5025129;28;20030;-58
2022/12/23 03:51:35;;;;;;;;;;;;;;;8.91;100.00;100373.56;5017306;28;20037;-58
2022/12/23 03:54:07;;;;;;;36.63;20.58;;;;;;;8.83;100.00;100379.63;5019614;28;19920;-58
2022/12/23 03:56:46;;;;;;;34.75;21.27;;;;;;;8.81;100.00;100370.22;5030167;28;20029;-59
2022/12/23 03:59:24;;;;;;;36.63;21.10;;;;;;;8.81;100.00;100378.13;5023766;28;20029;-59
2022/12/23 04:02:05;;;;;;;36.75;22.33;;;;;;;8.87;100.00;100377.50;5028604;28;20365;-58
2022/12/23 04:04:49;;;;;;;40.47;22.08;;;;;;;8.83;100.00;100386.75;5022601;28;20029;-57
2022/12/23 04:07:20;;;;;;;38.50;21.92;;;;;;;8.79;100.00;100396.00;5021749;28;20024;-58
2022/12/23 04:09:46;;;;;;;38.05;22.38;;;;;;;8.81;100.00;100391.38;5025615;28;20119;-59
2022/12/23 04:12:13;;;;;;;39.40;22.15;;;;;;;8.78;100.00;100399.63;5018249;28;20108;-57
2022/12/23 04:14:45;;;;;;;38.10;22.90;;;;;;;8.81;100.00;100399.28;5026774;28;20090;-58
2022/12/23 04:17:11;;;;;;;38.35;23.17;;;;;;;8.80;100.00;100397.66;5020659;28;20116;-58
2022/12/23 04:19:36;;;;;;;40.33;24.48;;;;;;;8.78;100.00;100399.63;5023035;28;20087;-58
2022/12/23 04:22:02;;;;;;;41.20;23.77;;;;;;;8.77;100.00;100408.56;5029428;28;20033;-58
2022/12/23 04:24:27;;;;;;;43.90;24.13;;;;;;;8.75;100.00;100411.34;5015899;28;20069;-58
2022/12/23 04:26:52;;;;;;;41.72;24.63;;;;;;;8.68;100.00;100410.34;5020303;28;20205;-57
2022/12/23 04:29:18;;;;;;;39.03;22.67;;;;;;;8.73;100.00;100419.44;5023575;28;20037;-58
2022/12/23 04:31:43;;;;;;;40.80;22.75;;;;;;;8.72;100.00;100417.78;5025519;28;20034;-58
2022/12/23 04:34:08;;;;;;;42.47;23.20;;;;;;;8.65;100.00;100416.78;5021483;28;20087;-58
2022/12/23 04:36:34;;;;;;;39.40;22.85;;;;;;;8.74;100.00;100429.00;5025365;28;20053;-58
2022/12/23 04:38:59;;;;;;;37.40;22.98;;;;;;;8.75;100.00;100427.22;5025431;28;20108;-57
2022/12/23 04:41:24;;;;;;;42.25;23.00;;;;;;;8.73;100.00;100427.38;5016784;28;20033;-58
2022/12/23 04:43:49;;;;;;;37.78;22.08;;;;;;;8.72;100.00;100423.06;5027539;28;20401;-57
2022/12/23 04:46:15;;;;;;;40.28;23.23;;;;;;;8.75;100.00;100422.75;5022444;28;20385;-57
2022/12/23 04:48:40;;;;;;;41.83;24.35;;;;;;;8.75;100.00;100411.34;5018274;28;20048;-57
2022/12/23 04:51:05;;;;;;;44.60;23.83;;;;;;;8.73;100.00;100413.31;5025585;28;20037;-58
2022/12/23 04:53:31;;;;;;;41.92;24.83;;;;;;;8.72;100.00;100401.09;5021440;28;20393;-58
2022/12/23 04:55:56;;;;;;;46.60;23.80;;;;;;;8.72;100.00;100403.72;5024122;28;20044;-59
2022/12/23 04:58:23;;;;;;;40.90;23.67;;;;;;;8.69;100.00;100394.28;5025921;28;20052;-58
2022/12/23 05:00:58;;;;;;;36.58;22.65;;;;;;;8.79;100.00;100402.09;5018579;28;20068;-58
2022/12/23 05:03:24;;;;;;;38.58;22.33;;;;;;;8.74;100.00;100394.66;5024424;28;20515;-58
2022/12/23 05:05:49;;;;;;;35.35;21.15;;;;;;;8.72;100.00;100395.78;5021454;28;20026;-58
2022/12/23 05:08:14;;;;;;;38.80;21.85;;;;;;;8.70;100.00;100393.34;5030158;28;20611;-58
2022/12/23 05:10:40;;;;;;;33.47;21.27;;;;;;;8.67;100.00;100398.94;5025240;28;20100;-59
2022/12/23 05:13:05;;;;;;;36.97;20.17;;;;;;;8.74;100.00;100402.59;5019430;28;20052;-58
2022/12/23 05:15:31;;;;;;;37.05;20.55;;;;;;;8.68;100.00;100405.88;5016166;28;20440;-58
2022/12/23 05:17:57;;;;;;;38.63;21.45;;;;;;;8.65;100.00;100406.19;5024934;28;20047;-59
2022/12/23 05:20:22;;;;;;;36.42;20.30;;;;;;;8.66;100.00;100420.22;5023919;28;20412;-58
2022/12/23 05:22:47;;;;;;;35.90;20.95;;;;;;;8.71;100.00;100426.72;5023864;28;20037;-58
2022/12/23 05:25:13;;;;;;;37.10;21.73;;;;;;;8.65;100.00;100427.34;5024229;28;20408;-61
2022/12/23 05:27:38;;;;;;;37.10;20.98;;;;;;;8.66;100.00;100439.56;5021539;28;20048;-58
2022/12/23 05:30:04;;;;;;;42.13;21.63;;;;;;;8.66;100.00;100436.09;5021792;28;20139;-58
2022/12/23 05:32:29;;;;;;;37.58;21.10;;;;;;;8.69;100.00;100447.16;5023612;28;20463;-58
2022/12/23 05:34:54;;;;;;;35.17;21.90;;;;;;;8.66;100.00;100450.16;5019825;28;20079;-57
2022/12/23 05:37:20;;;;;;;38.45;21.90;;;;;;;8.66;100.00;100447.50;5024692;28;20033;-58
2022/12/23 05:39:45;;;;;;;42.03;23.00;;;;;;;8.68;100.00;100453.44;5022937;28;20104;-58
2022/12/23 05:42:11;;;;;;;38.50;21.85;;;;;;;8.74;100.00;100457.28;5019640;28;20033;-58
2022/12/23 05:44:36;;;;;;;41.30;22.50;;;;;;;8.71;100.00;100457.59;5022849;28;20046;-58
2022/12/23 05:47:01;;;;;;;40.17;22.60;;;;;;;8.67;100.00;100454.44;5023125;28;20492;-59
2022/12/23 05:49:26;;;;;;;38.55;22.27;;;;;;;8.68;100.00;100450.81;5019773;28;20073;-57
2022/12/23 05:51:52;;;;;;;40.97;23.08;;;;;;;8.68;100.00;100457.91;5013792;28;20366;-58
2022/12/23 05:54:17;;;;;;;40.00;23.70;;;;;;;8.66;100.00;100450.16;5026014;28;20058;-59
2022/12/23 05:56:42;;;;;;;38.75;22.50;;;;;;;8.71;100.00;100447.84;5019227;28;20084;-57
2022/12/23 05:59:08;;;;;;;38.78;23.08;;;;;;;8.70;100.00;100440.06;5019872;28;20029;-58
2022/12/23 06:01:33;;;;;;;40.90;23.77;;;;;;;8.69;100.00;100433.94;5021150;28;20035;-58
2022/12/23 06:03:59;;;;;;;42.33;24.77;;;;;;;8.68;100.00;100432.28;5018633;28;20061;-58
2022/12/23 06:06:24;;;;;;;44.63;24.80;;;;;;;8.73;100.00;100430.00;5023175;28;20465;-58
2022/12/23 06:08:49;;;;;;;43.63;25.80;;;;;;;8.75;100.00;100424.56;5022192;28;20119;-58
2022/12/23 06:11:14;;;;;;;46.10;26.65;;;;;;;8.71;100.00;100421.41;5021988;28;20038;-58
2022/12/23 06:13:40;;;;;;;46.65;28.17;;;;;;;8.69;100.00;100415.44;5020404;28;20521;-58
2022/12/23 06:16:05;;;;;;;46.22;27.98;;;;;;;8.68;100.00;100412.97;5015651;28;20093;-58
2022/12/23 06:18:31;;;;;;;50.65;28.58;;;;;;;8.72;100.00;100411.66;5021632;28;20025;-59
2022/12/23 06:20:56;;;;;;;48.63;28.67;;;;;;;8.69;100.00;100407.50;5023287;28;20033;-58
2022/12/23 06:23:21;;;;;;;48.17;28.40;;;;;;;8.68;100.00;100405.06;5018785;28;20458;-58
2022/12/23 06:25:47;;;;;;;52.97;30.00;;;;;;;8.68;100.00;100411.16;5022510;28;20060;-59
2022/12/23 06:28:12;;;;;;;52.50;29.38;;;;;;;8.69;100.00;100406.72;5022672;28;20044;-58
2022/12/23 06:30:37;;;;;;;52.10;30.25;;;;;;;8.67;100.00;100404.22;5022112;28;20080;-57
2022/12/23 06:33:03;;;;;;;53.22;31.20;;;;;;;8.67;100.00;100414.78;5020866;28;20076;-57
2022/12/23 06:35:28;;;;;;;52.88;30.65;;;;;;;8.68;100.00;100415.63;5018468;28;20061;-59
2022/12/23 06:37:53;;;;;;;51.03;30.30;;;;;;;8.67;100.00;100419.22;5022855;28;20041;-57
2022/12/23 06:40:18;;;;;;;50.67;30.48;;;;;;;8.66;100.00;100421.06;5020829;28;20060;-58
2022/12/23 06:42:44;;;;;;;51.30;30.63;;;;;;;8.65;100.00;100422.06;5019620;28;20091;-58
2022/12/23 06:45:09;;;;;;;49.55;30.40;;;;;;;8.65;100.00;100423.84;5024027;28;20034;-61
2022/12/23 06:47:35;;;;;;;49.28;29.95;;;;;;;8.65;100.00;100430.00;5020144;28;20103;-58
2022/12/23 06:50:00;;;;;;;51.85;30.73;;;;;;;8.66;100.00;100433.44;5019246;28;20038;-57
2022/12/23 06:52:26;;;;;;;50.53;30.40;;;;;;;8.64;100.00;100441.56;5022930;28;20112;-59
2022/12/23 06:54:51;;;;;;;55.45;30.95;;;;;;;8.63;100.00;100439.88;5021161;28;20073;-59
2022/12/23 06:57:16;;;;;;;54.10;31.63;;;;;;;8.64;100.00;100451.28;5022787;28;20404;-58
2022/12/23 06:59:41;;;;;;;55.78;32.08;;;;;;;8.63;100.00;100463.66;5018991;28;20025;-58
2022/12/23 07:02:09;;;;;;;54.83;31.92;;;;;;;8.64;100.00;100467.97;5022212;28;20036;-60
2022/12/23 07:04:35;;;;;;;59.00;32.70;;;;;;;8.65;100.00;100474.94;5019681;28;20041;-58
2022/12/23 07:07:00;;;;;;;56.22;33.15;;;;;;;8.66;100.00;100495.09;5020953;28;20861;-58
2022/12/23 07:09:25;;;;;;;57.45;32.83;;;;;;;8.65;100.00;100501.34;5015770;28;20029;-61
2022/12/23 07:11:51;;;;;;;59.58;32.88;;;;;;;8.65;100.00;100503.16;5015691;28;20029;-60
2022/12/23 07:14:16;;;;;;;63.78;33.72;;;;;;;8.65;100.00;100492.59;5018064;28;20040;-58
2022/12/23 07:16:42;;;;;;;59.17;33.78;;;;;;;8.63;100.00;100471.59;5020395;28;20080;-58
2022/12/23 07:19:07;;;;;;;63.85;33.47;;;;;;;8.63;100.00;100470.78;5019298;28;20085;-59
2022/12/23 07:21:33;;;;;;;61.22;34.05;;;;;;;8.64;100.00;100459.22;5023279;28;20033;-58
2022/12/23 07:23:58;;;;;;;57.13;33.78;;;;;;;8.63;100.00;100471.59;5024216;28;20108;-57
2022/12/23 07:26:23;;;;;;;60.30;33.45;;;;;;;8.62;100.00;100459.38;5020660;28;20554;-59
2022/12/23 07:28:49;;;;;;;59.38;33.28;;;;;;;8.61;100.00;100460.34;5024216;28;20057;-57
2022/12/23 07:31:14;;;;;;;58.95;33.60;;;;;;;8.59;100.00;100471.09;5029924;28;20030;-57
2022/12/23 07:33:40;;;;;;;62.80;33.05;;;;;;;8.62;100.00;100469.94;5028503;28;20021;-60
2022/12/23 07:36:05;;;;;;;62.72;34.22;;;;;;;8.61;100.00;100466.47;5021794;28;20112;-58
2022/12/23 07:38:30;;;;;;;58.00;32.72;;;;;;;8.59;100.00;100460.50;5032098;28;20036;-57
2022/12/23 07:40:56;;;;;;;60.65;32.92;;;;;;;8.60;100.00;100456.88;5020589;28;20056;-58
2022/12/23 07:43:21;;;;;;;58.90;32.85;;;;;;;8.59;100.00;100459.69;5022436;28;20053;-58
2022/12/23 07:45:46;;;;;;;60.40;32.58;;;;;;;8.60;100.00;100456.06;5026479;28;20376;-57
2022/12/23 07:48:12;;;;;;;61.35;33.67;;;;;;;8.59;100.00;100455.22;5025858;28;20033;-59
2022/12/23 07:50:37;;;;;;;63.42;32.67;;;;;;;8.57;100.00;100456.38;5028718;28;20540;-58
2022/12/23 07:53:02;;;;;;;65.45;33.22;;;;;;;8.56;100.00;100457.34;5018512;28;20045;-58
2022/12/23 07:55:27;;;;;;;66.03;33.00;;;;;;;8.55;100.00;100458.34;5016389;28;20042;-58
2022/12/23 07:57:53;;;;;;;62.80;32.33;;;;;;;8.56;100.00;100449.44;5026816;28;20040;-58
2022/12/23 08:00:19;;;;;;;69.88;33.85;;;;;;;8.53;100.00;100449.75;5021893;28;20521;-59
2022/12/23 08:02:45;;;;;;;68.45;32.75;;;;;;;8.53;100.00;100471.72;5018184;28;20129;-59
2022/12/23 08:05:11;;;;;;;65.72;33.47;;;;;;;8.55;100.00;100466.28;5023291;28;20037;-58
2022/12/23 08:07:36;;;;;;;63.83;33.10;;;;;;;8.55;100.00;100453.91;5019913;28;20415;-58
2022/12/23 08:10:02;;;;;;;64.50;31.13;;;;;;;8.55;100.00;100434.56;5028483;28;20049;-59
2022/12/23 08:12:28;;;;;;;60.90;30.42;;;;;;;8.55;100.00;100437.19;5022090;28;20585;-59
2022/12/23 08:14:53;;;;;;;59.75;30.67;;;;;;;8.54;100.00;100443.47;5027264;28;20041;-58
2022/12/23 08:17:20;;;;;;;62.03;28.88;;;;;;;8.54;100.00;100436.38;5024621;28;20029;-60
2022/12/23 08:19:46;;;;;;;58.25;29.92;;;;;;;8.51;100.00;100431.38;5018940;28;20026;-58
2022/12/23 08:22:11;;;;;;;55.25;28.95;;;;;;;8.54;100.00;100446.13;5020742;28;20040;-57
2022/12/23 08:24:37;;;;;;;55.90;29.33;;;;;;;8.54;100.00;100454.06;5016008;28;20042;-58
2022/12/23 08:27:02;;;;;;;51.35;27.63;;;;;;;8.54;100.00;100446.94;5022871;28;20509;-59
2022/12/23 08:29:27;;;;;;;52.08;26.88;;;;;;;8.54;100.00;100454.06;5021420;28;20033;-58
2022/12/23 08:31:54;;;;;;;52.72;26.48;;;;;;;8.51;100.00;100447.22;5027297;28;20456;-58
2022/12/23 08:34:20;;;;;;;51.15;25.88;;;;;;;8.51;100.00;100451.69;5028409;28;20030;-58
2022/12/23 08:36:45;;;;;;;49.83;25.90;;;;;;;8.51;100.00;100443.75;5020866;28;20154;-59
2022/12/23 08:39:11;;;;;;;49.05;24.38;;;;;;;8.50;100.00;100444.75;5036497;28;20089;-58
2022/12/23 08:41:39;;;;;;;46.67;23.65;;;;;;;8.47;100.00;100436.16;5026731;28;20033;-58
2022/12/23 08:44:05;;;;;;;44.53;24.10;;;;;;;8.47;100.00;100433.50;5019032;28;20061;-58
2022/12/23 08:46:31;;;;;;;48.50;24.35;;;;;;;8.48;100.00;100437.81;5022080;28;20029;-58
2022/12/23 08:48:57;;;;;;;48.45;24.23;;;;;;;8.48;100.00;100431.69;5020507;28;20372;-58
2022/12/23 08:51:24;;;;;;;45.35;23.08;;;;;;;8.47;100.00;100425.59;5024554;28;20529;-57
2022/12/23 08:53:50;;;;;;;45.55;22.42;;;;;;;8.47;100.00;100420.28;5022420;28;20030;-57
2022/12/23 08:56:19;;;;;;;43.47;21.63;;;;;;;8.45;100.00;100416.97;5025416;28;20397;-58
2022/12/23 08:58:49;;;;;;;40.35;22.08;;;;;;;8.45;100.00;100414.31;5022642;28;20034;-58
2022/12/23 09:01:16;;;;;;;45.55;21.80;;;;;;;8.47;100.00;100422.94;5020039;28;20048;-58
2022/12/23 09:03:43;;;;;;;47.03;22.67;;;;;;;8.48;100.00;100411.38;5023059;28;20068;-59
2022/12/23 09:06:11;;;;;;;43.25;20.77;;;;;;;8.40;100.00;100398.13;5022190;28;20034;-59
2022/12/23 09:08:36;;;;;;;43.25;20.83;;;;;;;8.45;100.00;100393.19;5019368;28;20120;-59
2022/12/23 09:11:02;;;;;;;39.72;20.13;;;;;;;8.45;100.00;100392.38;5025575;28;20109;-59
2022/12/23 09:13:28;;;;;;;43.78;21.23;;;;;;;8.43;100.00;100376.66;5018674;28;20038;-58
2022/12/23 09:15:53;;;;;;;41.38;19.52;;;;;;;8.43;100.00;100384.59;5020128;28;20884;-58
2022/12/23 09:18:19;;;;;;;37.85;18.95;;;;;;;8.43;100.00;100387.25;5018213;28;20037;-58
2022/12/23 09:20:45;;;;;;;34.65;18.23;;;;;;;8.42;100.00;100376.81;5022413;28;20025;-57
2022/12/23 09:23:10;;;;;;;38.08;19.67;;;;;;;8.40;100.00;100370.88;5026232;28;20051;-58
2022/12/23 09:25:36;;;;;;;36.53;18.90;;;;;;;8.39;100.00;100370.03;5024619;28;20108;-58
2022/12/23 09:28:03;;;;;;;37.50;20.45;;;;;;;8.39;100.00;100370.03;5018615;28;20044;-58
2022/12/23 09:30:28;;;;;;;40.55;20.65;;;;;;;8.39;100.00;100369.22;5015997;28;20109;-58
2022/12/23 09:32:53;;;;;;;37.13;19.25;;;;;;;8.41;100.00;100362.78;5021111;28;20406;-60
2022/12/23 09:35:19;;;;;;;36.78;18.25;;;;;;;8.41;100.00;100372.53;5024079;28;20029;-58
2022/12/23 09:37:44;;;;;;;36.90;17.92;;;;;;;8.40;100.00;100362.94;5022687;28;20447;-59
2022/12/23 09:40:14;;;;;;;34.65;17.08;;;;;;;8.40;100.00;100353.22;5025256;28;20144;-58
2022/12/23 09:42:58;;;;;;;32.55;16.55;;;;;;;8.40;100.00;100350.56;5017224;28;20119;-58
2022/12/23 09:45:42;;;;;;;32.05;15.70;;;;;;;8.37;100.00;100350.88;5021324;28;20078;-57
2022/12/23 09:48:13;;;;;;;34.17;15.63;;;;;;;8.34;100.00;100345.94;5021988;28;20021;-57
2022/12/23 09:50:40;;;;;;;37.17;15.55;;;;;;;8.35;100.00;100334.38;5024371;28;20080;-58
2022/12/23 09:53:18;;;;;;;33.35;15.68;;;;;;;8.39;100.00;100335.69;5027366;28;20029;-58
2022/12/23 09:56:01;;;;;;;35.13;15.20;;;;;;;8.37;100.00;100335.03;5025489;28;20722;-58
2022/12/23 09:58:42;;;;;;;25.80;14.37;;;;;;;8.38;100.00;100343.78;5020065;28;20036;-59
2022/12/23 10:01:12;;;;;;;31.35;14.32;;;;;;;8.40;100.00;100349.75;5020347;28;20036;-58
2022/12/23 10:04:09;;;;;;;32.55;14.48;;;;;;;8.42;100.00;100343.31;5020023;28;20041;-58
2022/12/23 10:06:37;;;;;;;31.23;14.15;;;;;;;8.42;100.00;100358.31;5022268;28;20037;-58
2022/12/23 10:09:05;;;;;;;26.95;14.70;;;;;;;8.41;100.00;100346.94;5027732;28;20358;-59
2022/12/23 10:11:36;;;;;;;29.50;14.95;;;;;;;8.42;100.00;100338.03;5027564;28;20653;-58
2022/12/23 10:14:14;;;;;;;35.42;15.50;;;;;;;8.40;100.00;100323.31;5023326;28;20083;-59
2022/12/23 10:17:04;;;;;;;30.95;15.93;;;;;;;8.40;100.00;100323.31;5023214;28;20473;-58
2022/12/23 10:19:40;;;;;;;33.63;15.75;;;;;;;8.37;100.00;100311.25;5018087;28;20029;-59
2022/12/23 10:22:22;;;;;;;31.77;16.73;;;;;;;8.39;100.00;100306.63;5019970;28;20121;-58
2022/12/23 10:24:47;;;;;;;34.78;16.65;;;;;;;8.37;100.00;100308.59;5014516;28;20033;-59
2022/12/23 10:27:39;;;;;;;32.70;16.45;;;;;;;8.40;100.00;100291.63;5029099;28;20053;-59
2022/12/23 10:30:14;;;;;;;32.60;16.25;;;;;;;8.42;100.00;100290.47;5021043;28;20037;-58
2022/12/23 10:32:48;;;;;;;33.15;16.55;;;;;;;8.44;100.00;100291.13;5028277;28;20061;-58
2022/12/23 10:35:51;;;;;;;31.05;16.35;;;;;;;8.49;100.00;100274.81;5023805;28;20064;-58
2022/12/23 10:38:39;;;;;;;31.10;15.73;;;;;;;8.53;100.00;100265.56;5020989;28;20473;-59
2022/12/23 10:41:26;;;;;;;27.23;14.90;;;;;;;8.53;100.00;100264.75;5023696;28;20026;-59
2022/12/23 10:43:54;;;;;;;32.63;15.52;;;;;;;8.53;100.00;100265.56;5022620;28;20069;-57
2022/12/23 10:46:38;;;;;;;25.38;13.68;;;;;;;8.52;100.00;100263.94;5021451;28;20072;-58
2022/12/23 10:49:21;;;;;;;28.73;13.52;;;;;;;8.55;100.00;100262.78;5017564;28;20038;-59
2022/12/23 10:51:56;;;;;;;28.23;14.00;;;;;;;8.55;100.00;100252.22;5016541;28;20068;-58
2022/12/23 10:54:27;;;;;;;27.65;13.32;;;;;;;8.51;100.00;100241.09;5016388;28;20025;-58
2022/12/23 10:56:53;;;;;;;25.58;12.80;;;;;;;8.50;100.00;100233.34;5015998;28;20066;-59
2022/12/23 10:59:26;;;;;;;25.55;12.15;;;;;;;8.50;100.00;100223.59;5017706;28;20033;-58
2022/12/23 11:02:00;;;;;;;25.75;12.40;;;;;;;8.51;100.00;100217.31;5028309;28;20534;-59
2022/12/23 11:04:34;;;;;;;26.35;11.68;;;;;;;8.50;100.00;100209.56;5027577;28;20033;-58
2022/12/23 11:07:01;;;;;;;25.25;11.90;;;;;;;8.52;100.00;100204.94;5025962;28;20032;-59
2022/12/23 11:09:36;;;;;;;31.08;13.70;;;;;;;8.46;100.00;100185.28;5026093;28;20087;-58
2022/12/23 11:12:05;;;;;;;24.05;12.13;;;;;;;8.48;100.00;100189.41;5023236;28;20037;-59
2022/12/23 11:14:40;;;;;;;23.08;11.25;;;;;;;8.48;100.00;100194.69;5027813;28;20033;-58
2022/12/23 11:17:18;;;;;;;24.58;11.40;;;;;;;8.47;100.00;100193.03;5025765;28;20025;-59
2022/12/23 11:19:44;;;;;;;23.08;10.98;;;;;;;8.50;100.00;100196.34;5025066;28;20038;-60
2022/12/23 11:22:21;;;;;;;23.60;11.27;;;;;;;8.51;100.00;100195.34;5022274;28;20472;-58
2022/12/23 11:24:47;;;;;;;24.10;11.43;;;;;;;8.51;100.00;100192.69;5026173;28;20026;-58
2022/12/23 11:27:15;;;;;;;23.83;11.73;;;;;;;8.48;100.00;100191.22;5023558;28;20029;-59
2022/12/23 11:29:53;;;;;;;23.45;11.52;;;;;;;8.50;100.00;100180.47;5023125;28;20101;-58
2022/12/23 11:32:26;;;;;;;22.42;11.35;;;;;;;8.48;100.00;100170.06;5027179;28;20649;-58
2022/12/23 11:34:51;;;;;;;22.85;11.30;;;;;;;8.47;100.00;100163.97;5019340;28;20048;-59
2022/12/23 11:37:29;;;;;;;22.58;11.13;;;;;;;8.46;100.00;100159.69;5025250;28;20029;-58
2022/12/23 11:39:54;;;;;;;23.55;11.00;;;;;;;8.45;100.00;100163.28;5024820;28;20040;-58
2022/12/23 11:42:26;;;;;;;23.35;10.40;;;;;;;8.45;100.00;100151.91;5023355;28;20029;-57
2022/12/23 11:44:53;;;;;;;24.48;11.48;;;;;;;8.45;100.00;100147.44;5025274;28;20069;-58
2022/12/23 11:47:42;;;;;;;21.35;10.38;;;;;;;8.45;100.00;100136.88;5024966;28;20030;-59